Time;durP1;ratioP1;P1;durP2;ratioP2;P2;SDS_P1;SDS_P2;PMS_P1;PMS_P2;Temp;Humidity;BMP_temperature;BMP_pressure;BME280_temperature;BME280_humidity;BME280_pressure;Samples;Min_cycle;Max_cycle;Signal;HPM_P1;HPM_P2
2021/04/28 00:00:31;;;;;;;4.60;3.22;;;;;;;;;;4971529;28;20026;-58
2021/04/28 00:02:57;;;;;;;4.68;2.45;;;;;;;;;;4967672;28;20031;-56
2021/04/28 00:05:23;;;;;;;5.85;3.30;;;;;;;;;;4968970;28;20030;-57
2021/04/28 00:07:49;;;;;;;11.63;4.03;;;;;;;;;;4967290;28;20062;-57
2021/04/28 00:10:16;;;;;;;3.00;2.63;;;;;;;;;;4967681;28;20027;-56
2021/04/28 00:12:42;;;;;;;7.88;3.88;;;;;;;;;;4966264;28;20113;-57
2021/04/28 00:15:09;;;;;;;7.53;4.28;;;;;;;;;;4957554;28;20480;-57
2021/04/28 00:17:35;;;;;;;7.93;4.38;;;;;;;;;;4966798;28;20031;-57
2021/04/28 00:20:00;;;;;;;6.57;3.60;;;;;;;;;;4972431;28;20027;-57
2021/04/28 00:22:26;;;;;;;5.35;2.78;;;;;;;;;;4968446;28;20492;-57
2021/04/28 00:24:51;;;;;;;6.63;2.17;;;;;;;;;;4968700;28;20018;-57
2021/04/28 00:27:16;;;;;;;14.07;3.92;;;;;;;;;;4972784;28;20843;-57
2021/04/28 00:29:42;;;;;;;4.28;1.98;;;;;;;;;;4970298;28;20042;-57
2021/04/28 00:32:07;;;;;;;4.40;2.17;;;;;;;;;;4970462;28;20125;-57
2021/04/28 00:34:32;;;;;;;5.15;3.38;;;;;;;;;;4977266;28;20054;-57
2021/04/28 00:36:57;;;;;;;5.50;2.67;;;;;;;;;;4974371;28;20042;-56
2021/04/28 00:39:23;;;;;;;12.18;2.72;;;;;;;;;;4972160;28;20022;-57
2021/04/28 00:41:48;;;;;;;10.25;4.88;;;;;;;;;;4972317;28;20427;-57
2021/04/28 00:44:15;;;;;;;6.90;4.28;;;;;;;;;;4955190;28;20026;-58
2021/04/28 00:46:40;;;;;;;4.45;3.92;;;;;;;;;;4970305;28;20598;-57
2021/04/28 00:49:06;;;;;;;18.98;17.50;;;;;;;;;;4970210;28;20053;-57
2021/04/28 00:51:31;;;;;;;8.60;5.78;;;;;;;;;;4973109;28;20027;-57
2021/04/28 00:53:57;;;;;;;6.32;4.55;;;;;;;;;;4970085;28;20050;-57
2021/04/28 00:56:22;;;;;;;6.00;4.57;;;;;;;;;;4972346;28;20066;-57
2021/04/28 00:58:47;;;;;;;9.25;5.35;;;;;;;;;;4971704;28;20435;-57
2021/04/28 01:01:13;;;;;;;6.95;4.95;;;;;;;;;;4969666;28;20506;-56
2021/04/28 01:03:39;;;;;;;6.78;5.00;;;;;;;;;;4969564;28;20057;-57
2021/04/28 01:06:05;;;;;;;6.75;4.25;;;;;;;;;;4969749;28;20027;-57
2021/04/28 01:08:31;;;;;;;3.45;2.75;;;;;;;;;;4975925;28;20137;-57
2021/04/28 01:10:57;;;;;;;14.63;4.25;;;;;;;;;;4971661;28;20859;-56
2021/04/28 01:13:23;;;;;;;6.20;3.67;;;;;;;;;;4970334;28;20034;-56
2021/04/28 01:15:49;;;;;;;14.18;4.53;;;;;;;;;;4972199;28;20428;-57
2021/04/28 01:18:15;;;;;;;5.57;3.67;;;;;;;;;;4969250;28;20035;-57
2021/04/28 01:20:41;;;;;;;4.40;3.28;;;;;;;;;;4969755;28;20475;-57
2021/04/28 01:23:08;;;;;;;15.35;5.63;;;;;;;;;;4955843;28;20464;-56
2021/04/28 01:25:33;;;;;;;6.35;4.07;;;;;;;;;;4971518;28;20030;-57
2021/04/28 01:28:06;;;;;;;6.90;3.58;;;;;;;;;;4970279;28;20045;-57
2021/04/28 01:30:44;;;;;;;4.93;3.45;;;;;;;;;;4969976;28;20035;-57
2021/04/28 01:33:11;;;;;;;12.65;2.88;;;;;;;;;;4969241;28;20075;-57
2021/04/28 01:35:37;;;;;;;7.47;2.42;;;;;;;;;;4970900;28;20052;-57
2021/04/28 01:38:04;;;;;;;4.05;1.77;;;;;;;;;;4969736;28;20031;-56
2021/04/28 01:40:29;;;;;;;3.13;2.55;;;;;;;;;;4970096;28;20022;-57
2021/04/28 01:42:55;;;;;;;6.85;2.28;;;;;;;;;;4970164;28;20136;-57
2021/04/28 01:45:21;;;;;;;6.05;3.33;;;;;;;;;;4972253;28;20631;-57
2021/04/28 01:47:47;;;;;;;7.95;5.30;;;;;;;;;;4969076;28;20049;-57
2021/04/28 01:50:13;;;;;;;15.48;6.07;;;;;;;;;;4977778;28;20076;-57
2021/04/28 01:52:40;;;;;;;5.28;4.20;;;;;;;;;;4972276;28;20045;-57
2021/04/28 01:55:06;;;;;;;14.38;6.32;;;;;;;;;;4969619;28;20335;-57
2021/04/28 01:57:31;;;;;;;10.88;5.30;;;;;;;;;;4969304;28;20510;-57
2021/04/28 01:59:57;;;;;;;5.00;3.47;;;;;;;;;;4968559;28;20062;-57
2021/04/28 02:02:22;;;;;;;9.65;5.22;;;;;;;;;;4970632;28;20034;-57
2021/04/28 02:04:48;;;;;;;11.75;4.53;;;;;;;;;;4972353;28;20026;-57
2021/04/28 02:07:14;;;;;;;8.68;4.20;;;;;;;;;;4968329;28;20035;-56
2021/04/28 02:09:39;;;;;;;6.32;4.07;;;;;;;;;;4955875;28;20026;-57
2021/04/28 02:12:05;;;;;;;10.30;5.32;;;;;;;;;;4970749;28;20034;-56
2021/04/28 02:14:31;;;;;;;7.93;4.05;;;;;;;;;;4969968;28;20031;-58
2021/04/28 02:16:57;;;;;;;7.32;4.65;;;;;;;;;;4967665;28;20098;-57
2021/04/28 02:19:22;;;;;;;8.18;5.63;;;;;;;;;;4970549;28;20498;-58
2021/04/28 02:21:49;;;;;;;7.18;3.55;;;;;;;;;;4971759;28;20038;-57
2021/04/28 02:24:15;;;;;;;8.90;3.92;;;;;;;;;;4969875;28;20523;-58
2021/04/28 02:26:41;;;;;;;4.00;3.13;;;;;;;;;;4972599;28;20194;-57
2021/04/28 02:29:06;;;;;;;6.45;3.83;;;;;;;;;;4967530;28;20022;-57
2021/04/28 02:31:32;;;;;;;8.18;3.55;;;;;;;;;;4967538;28;20093;-58
2021/04/28 02:33:59;;;;;;;6.57;3.25;;;;;;;;;;4969257;28;20019;-58
2021/04/28 02:36:25;;;;;;;5.43;4.00;;;;;;;;;;4971066;28;20146;-57
2021/04/28 02:38:57;;;;;;;5.53;3.22;;;;;;;;;;4968498;28;20026;-58
2021/04/28 02:41:23;;;;;;;7.55;3.63;;;;;;;;;;4968914;28;20565;-57
2021/04/28 02:43:52;;;;;;;8.20;3.08;;;;;;;;;;4968721;28;20030;-58
2021/04/28 02:46:18;;;;;;;7.07;3.72;;;;;;;;;;4958377;28;20106;-56
2021/04/28 02:48:46;;;;;;;5.45;3.33;;;;;;;;;;4966917;28;20109;-58
2021/04/28 02:51:11;;;;;;;8.02;3.63;;;;;;;;;;4968674;28;20542;-58
2021/04/28 02:53:36;;;;;;;9.18;4.25;;;;;;;;;;4967910;28;20042;-57
2021/04/28 02:56:02;;;;;;;6.97;3.53;;;;;;;;;;4971211;28;20033;-58
2021/04/28 02:58:28;;;;;;;12.27;4.45;;;;;;;;;;4967881;28;20037;-58
2021/04/28 03:00:55;;;;;;;5.35;3.20;;;;;;;;;;4970080;28;20319;-58
2021/04/28 03:03:20;;;;;;;6.22;3.33;;;;;;;;;;4967957;28;20038;-57
2021/04/28 03:05:52;;;;;;;5.00;3.22;;;;;;;;;;4969029;28;20435;-58
2021/04/28 03:08:21;;;;;;;4.35;3.00;;;;;;;;;;4967873;28;20047;-58
2021/04/28 03:10:47;;;;;;;7.15;3.35;;;;;;;;;;4971310;28;20023;-57
2021/04/28 03:13:12;;;;;;;6.88;3.72;;;;;;;;;;4971268;28;20035;-58
2021/04/28 03:15:38;;;;;;;5.47;3.30;;;;;;;;;;4968766;28;20038;-57
2021/04/28 03:18:03;;;;;;;14.23;4.90;;;;;;;;;;4969066;28;20369;-58
2021/04/28 03:20:29;;;;;;;3.28;2.83;;;;;;;;;;4968282;28;20054;-57
2021/04/28 03:22:55;;;;;;;5.38;2.53;;;;;;;;;;4967225;28;20031;-58
2021/04/28 03:25:20;;;;;;;8.10;4.10;;;;;;;;;;4969339;28;20019;-57
2021/04/28 03:27:46;;;;;;;7.60;3.47;;;;;;;;;;4969192;28;20488;-58
2021/04/28 03:30:11;;;;;;;4.63;3.00;;;;;;;;;;4967701;28;20029;-57
2021/04/28 03:32:36;;;;;;;16.55;4.18;;;;;;;;;;4967334;28;20080;-58
2021/04/28 03:35:02;;;;;;;7.93;3.42;;;;;;;;;;4966179;28;20502;-58
2021/04/28 03:37:28;;;;;;;9.32;3.97;;;;;;;;;;4968517;28;20089;-57
2021/04/28 03:39:53;;;;;;;5.85;4.22;;;;;;;;;;4968309;28;20026;-57
2021/04/28 03:42:19;;;;;;;5.95;3.55;;;;;;;;;;4968283;28;20519;-58
2021/04/28 03:44:44;;;;;;;7.30;3.60;;;;;;;;;;4968727;28;20149;-58
2021/04/28 03:47:10;;;;;;;7.03;3.47;;;;;;;;;;4968778;28;20549;-57
2021/04/28 03:49:35;;;;;;;4.95;3.25;;;;;;;;;;4968198;28;20058;-58
2021/04/28 03:52:00;;;;;;;3.90;3.05;;;;;;;;;;4969477;28;20046;-58
2021/04/28 03:54:26;;;;;;;4.53;2.92;;;;;;;;;;4970570;28;20029;-58
2021/04/28 03:56:51;;;;;;;8.00;3.42;;;;;;;;;;4967785;28;20034;-57
2021/04/28 03:59:18;;;;;;;7.45;3.53;;;;;;;;;;4967320;28;20015;-58
2021/04/28 04:01:43;;;;;;;4.80;2.97;;;;;;;;;;4972954;28;20034;-57
2021/04/28 04:04:09;;;;;;;3.55;3.03;;;;;;;;;;4970774;28;20033;-58
2021/04/28 04:06:34;;;;;;;11.27;4.07;;;;;;;;;;4972802;28;20027;-59
2021/04/28 04:09:00;;;;;;;20.63;4.32;;;;;;;;;;4970784;28;20577;-60
2021/04/28 04:11:25;;;;;;;13.65;4.13;;;;;;;;;;4971820;28;20110;-60
2021/04/28 04:13:51;;;;;;;5.97;2.72;;;;;;;;;;4971722;28;20023;-59
2021/04/28 04:16:16;;;;;;;8.73;3.70;;;;;;;;;;4970620;28;20521;-59
2021/04/28 04:18:41;;;;;;;9.45;4.32;;;;;;;;;;4974614;28;20521;-59
2021/04/28 04:21:06;;;;;;;5.82;3.13;;;;;;;;;;4972833;28;20574;-60
2021/04/28 04:23:32;;;;;;;7.30;3.38;;;;;;;;;;4969845;28;20087;-59
2021/04/28 04:25:57;;;;;;;15.00;3.08;;;;;;;;;;4973681;28;20026;-60
2021/04/28 04:28:22;;;;;;;5.13;3.60;;;;;;;;;;4972824;28;20039;-59
2021/04/28 04:30:50;;;;;;;5.88;3.67;;;;;;;;;;4971516;28;20483;-59
2021/04/28 04:33:17;;;;;;;6.75;4.13;;;;;;;;;;4970895;28;20129;-59
2021/04/28 04:35:42;;;;;;;8.85;3.70;;;;;;;;;;4969884;28;20034;-59
2021/04/28 04:38:07;;;;;;;7.40;3.40;;;;;;;;;;4969951;28;20077;-59
2021/04/28 04:40:33;;;;;;;8.43;4.22;;;;;;;;;;4979897;28;20026;-59
2021/04/28 04:42:58;;;;;;;8.20;4.50;;;;;;;;;;4973564;28;20089;-59
2021/04/28 04:45:23;;;;;;;5.50;4.50;;;;;;;;;;4972043;28;20383;-59
2021/04/28 04:47:49;;;;;;;7.03;3.60;;;;;;;;;;4970721;28;20103;-59
2021/04/28 04:50:14;;;;;;;9.18;3.92;;;;;;;;;;4972730;28;20081;-60
2021/04/28 04:52:41;;;;;;;11.35;4.57;;;;;;;;;;4970734;28;20427;-59
2021/04/28 04:55:06;;;;;;;11.98;4.45;;;;;;;;;;4974908;28;20022;-59
2021/04/28 04:57:32;;;;;;;9.60;4.32;;;;;;;;;;4970853;28;20394;-59
2021/04/28 04:59:57;;;;;;;9.18;3.45;;;;;;;;;;4971914;28;20033;-59
2021/04/28 05:02:22;;;;;;;6.30;4.03;;;;;;;;;;4972763;28;20574;-60
2021/04/28 05:04:48;;;;;;;5.97;4.65;;;;;;;;;;4972862;28;20026;-59
2021/04/28 05:07:13;;;;;;;8.80;4.32;;;;;;;;;;4970337;28;20035;-59
2021/04/28 05:09:38;;;;;;;7.05;4.75;;;;;;;;;;4972390;28;20589;-60
2021/04/28 05:12:04;;;;;;;8.20;3.58;;;;;;;;;;4968790;28;20571;-60
2021/04/28 05:14:30;;;;;;;11.85;4.32;;;;;;;;;;4971394;28;20085;-59
2021/04/28 05:16:55;;;;;;;5.93;4.00;;;;;;;;;;4971385;28;20038;-59
2021/04/28 05:19:20;;;;;;;16.33;4.70;;;;;;;;;;4974475;28;20498;-59
2021/04/28 05:21:46;;;;;;;14.60;5.50;;;;;;;;;;4973180;28;20101;-59
2021/04/28 05:24:11;;;;;;;6.20;3.47;;;;;;;;;;4972631;28;20366;-60
2021/04/28 05:26:36;;;;;;;6.55;4.93;;;;;;;;;;4973961;28;20539;-60
2021/04/28 05:29:02;;;;;;;5.97;3.83;;;;;;;;;;4978818;28;20034;-60
2021/04/28 05:31:27;;;;;;;8.27;4.22;;;;;;;;;;4972417;28;20023;-59
2021/04/28 05:33:53;;;;;;;8.45;4.72;;;;;;;;;;4974044;28;20531;-59
2021/04/28 05:36:18;;;;;;;6.60;4.05;;;;;;;;;;4972857;28;20027;-59
2021/04/28 05:38:43;;;;;;;16.17;4.65;;;;;;;;;;4972526;28;20019;-59
2021/04/28 05:41:09;;;;;;;18.98;5.07;;;;;;;;;;4972877;28;20081;-59
2021/04/28 05:43:34;;;;;;;8.32;4.35;;;;;;;;;;4972578;28;20340;-60
2021/04/28 05:46:01;;;;;;;8.63;4.65;;;;;;;;;;4970913;28;20031;-60
2021/04/28 05:48:26;;;;;;;5.90;4.20;;;;;;;;;;4972688;28;20035;-59
2021/04/28 05:50:51;;;;;;;16.75;5.28;;;;;;;;;;4973531;28;20554;-60
2021/04/28 05:53:17;;;;;;;5.85;3.38;;;;;;;;;;4973371;28;20875;-60
2021/04/28 05:55:42;;;;;;;7.97;3.67;;;;;;;;;;4973083;28;20027;-59
2021/04/28 05:58:07;;;;;;;9.40;4.82;;;;;;;;;;4972825;28;20082;-60
2021/04/28 06:00:33;;;;;;;4.93;4.20;;;;;;;;;;4970951;28;20037;-59
2021/04/28 06:02:58;;;;;;;8.52;4.18;;;;;;;;;;4973206;28;20030;-60
2021/04/28 06:05:24;;;;;;;5.72;4.18;;;;;;;;;;4971067;28;20027;-59
2021/04/28 06:07:49;;;;;;;8.68;3.40;;;;;;;;;;4972775;28;20181;-60
2021/04/28 06:10:15;;;;;;;7.68;3.90;;;;;;;;;;4976286;28;20166;-66
2021/04/28 06:12:41;;;;;;;10.90;3.42;;;;;;;;;;4970929;28;20038;-65
2021/04/28 06:15:07;;;;;;;29.38;26.25;;;;;;;;;;4971821;28;20019;-66
2021/04/28 06:17:33;;;;;;;18.15;9.90;;;;;;;;;;4974202;28;20122;-65
2021/04/28 06:19:58;;;;;;;9.52;4.82;;;;;;;;;;4971808;28;20236;-60
2021/04/28 06:22:23;;;;;;;13.20;4.82;;;;;;;;;;4972628;28;20577;-61
2021/04/28 06:24:49;;;;;;;9.35;5.75;;;;;;;;;;4972085;28;20492;-60
2021/04/28 06:27:14;;;;;;;13.88;5.55;;;;;;;;;;4970927;28;20514;-61
2021/04/28 06:29:39;;;;;;;6.60;5.22;;;;;;;;;;4958418;28;20038;-61
2021/04/28 06:32:06;;;;;;;8.18;4.50;;;;;;;;;;4970714;28;20054;-60
2021/04/28 06:34:31;;;;;;;9.52;6.18;;;;;;;;;;4971584;28;20026;-61
2021/04/28 06:36:56;;;;;;;7.38;5.72;;;;;;;;;;4972451;28;20468;-60
2021/04/28 06:39:22;;;;;;;12.65;7.60;;;;;;;;;;4971504;28;20054;-61
2021/04/28 06:41:47;;;;;;;19.45;9.35;;;;;;;;;;4973644;28;20037;-61
2021/04/28 06:44:12;;;;;;;24.80;12.73;;;;;;;;;;4970543;28;20438;-61
2021/04/28 06:46:38;;;;;;;21.40;16.02;;;;;;;;;;4970865;28;20058;-61
2021/04/28 06:49:03;;;;;;;36.67;13.07;;;;;;;;;;4972405;28;20041;-60
2021/04/28 06:51:28;;;;;;;16.98;12.35;;;;;;;;;;4970484;28;20770;-62
2021/04/28 06:53:54;;;;;;;19.88;12.68;;;;;;;;;;4970839;28;20053;-61
2021/04/28 06:56:19;;;;;;;18.80;11.10;;;;;;;;;;4973294;28;20034;-61
2021/04/28 06:58:46;;;;;;;15.13;10.82;;;;;;;;;;4972731;28;20026;-58
2021/04/28 07:01:11;;;;;;;11.68;8.20;;;;;;;;;;4970415;28;20014;-58
2021/04/28 07:03:37;;;;;;;6.82;5.45;;;;;;;;;;4972525;28;20100;-58
2021/04/28 07:06:03;;;;;;;10.10;7.60;;;;;;;;;;4971075;28;20045;-62
2021/04/28 07:08:28;;;;;;;13.13;9.45;;;;;;;;;;4969932;28;20068;-62
2021/04/28 07:10:53;;;;;;;14.52;7.82;;;;;;;;;;4973603;28;20344;-62
2021/04/28 07:13:18;;;;;;;16.90;7.95;;;;;;;;;;4971422;28;20113;-61
2021/04/28 07:15:44;;;;;;;42.95;13.40;;;;;;;;;;4969525;28;20023;-59
2021/04/28 07:18:09;;;;;;;9.95;7.30;;;;;;;;;;4973934;28;20088;-59
2021/04/28 07:20:34;;;;;;;11.30;6.78;;;;;;;;;;4971338;28;20472;-59
2021/04/28 07:23:00;;;;;;;16.05;7.03;;;;;;;;;;4971677;28;20034;-61
2021/04/28 07:25:25;;;;;;;25.48;8.25;;;;;;;;;;4971243;28;20078;-61
2021/04/28 07:27:51;;;;;;;14.70;6.45;;;;;;;;;;4969724;28;20059;-61
2021/04/28 07:30:16;;;;;;;10.23;6.88;;;;;;;;;;4972679;28;20075;-61
2021/04/28 07:32:42;;;;;;;21.50;6.63;;;;;;;;;;4974892;28;20034;-61
2021/04/28 07:35:08;;;;;;;9.95;6.10;;;;;;;;;;4973565;28;20159;-62
2021/04/28 07:37:34;;;;;;;9.75;7.05;;;;;;;;;;4974963;28;20562;-62
2021/04/28 07:39:59;;;;;;;47.33;10.60;;;;;;;;;;4974633;28;20027;-62
2021/04/28 07:42:24;;;;;;;10.20;4.88;;;;;;;;;;4974720;28;20019;-62
2021/04/28 07:44:50;;;;;;;11.40;5.00;;;;;;;;;;4980842;28;20034;-62
2021/04/28 07:47:15;;;;;;;5.63;3.42;;;;;;;;;;4975403;28;20551;-62
2021/04/28 07:49:40;;;;;;;5.30;4.13;;;;;;;;;;4959571;28;20089;-62
2021/04/28 07:52:06;;;;;;;2.88;2.55;;;;;;;;;;4974224;28;20030;-62
2021/04/28 07:54:31;;;;;;;6.22;3.97;;;;;;;;;;4975389;28;20023;-62
2021/04/28 07:56:58;;;;;;;4.45;3.45;;;;;;;;;;4975201;28;20041;-44
2021/04/28 07:59:24;;;;;;;5.50;3.15;;;;;;;;;;4975577;28;20167;-49
2021/04/28 08:01:49;;;;;;;5.95;4.82;;;;;;;;;;4974403;28;20631;-44
2021/04/28 08:04:15;;;;;;;10.80;4.10;;;;;;;;;;4973335;28;20113;-46
2021/04/28 08:06:40;;;;;;;6.15;3.42;;;;;;;;;;4974722;28;20037;-44
2021/04/28 08:09:06;;;;;;;3.03;2.47;;;;;;;;;;4964522;28;20506;-44
2021/04/28 08:11:31;;;;;;;6.32;3.28;;;;;;;;;;4975049;28;20069;-45
2021/04/28 08:13:56;;;;;;;4.55;2.15;;;;;;;;;;4973368;28;20364;-46
2021/04/28 08:16:22;;;;;;;6.03;3.30;;;;;;;;;;4974090;28;20383;-45
2021/04/28 08:18:48;;;;;;;9.88;3.60;;;;;;;;;;4977589;28;20028;-45
2021/04/28 08:21:14;;;;;;;15.00;5.30;;;;;;;;;;4978066;28;20137;-44
2021/04/28 08:23:42;;;;;;;12.15;3.45;;;;;;;;;;4981630;28;20118;-46
2021/04/28 08:26:09;;;;;;;5.50;2.45;;;;;;;;;;4977009;28;20765;-45
2021/04/28 08:28:40;;;;;;;9.45;4.70;;;;;;;;;;4975134;28;20158;-45
2021/04/28 08:31:10;;;;;;;5.63;3.50;;;;;;;;;;4970045;28;20022;-45
2021/04/28 08:33:35;;;;;;;4.43;3.03;;;;;;;;;;4972290;28;20085;-46
2021/04/28 08:36:01;;;;;;;3.55;1.98;;;;;;;;;;4961579;28;20026;-49
2021/04/28 08:38:26;;;;;;;9.73;5.05;;;;;;;;;;4969512;28;20065;-46
2021/04/28 08:40:51;;;;;;;19.95;5.05;;;;;;;;;;4970101;28;20102;-49
2021/04/28 08:43:20;;;;;;;7.45;4.18;;;;;;;;;;4972900;28;20030;-46
2021/04/28 08:45:46;;;;;;;7.10;4.43;;;;;;;;;;4968521;28;20097;-44
2021/04/28 08:48:11;;;;;;;13.32;4.80;;;;;;;;;;4973782;28;20566;-46
2021/04/28 08:50:36;;;;;;;5.18;3.03;;;;;;;;;;4969683;28;20160;-50
2021/04/28 08:53:02;;;;;;;4.78;4.00;;;;;;;;;;4969023;28;20034;-44
2021/04/28 08:55:28;;;;;;;9.88;4.55;;;;;;;;;;4970840;28;20034;-46
2021/04/28 08:57:53;;;;;;;20.20;5.15;;;;;;;;;;4972927;28;20047;-47
2021/04/28 09:00:18;;;;;;;6.05;4.80;;;;;;;;;;4974165;28;20558;-44
2021/04/28 09:03:10;;;;;;;5.78;5.15;;;;;;;;;;4973424;28;20031;-49
2021/04/28 09:05:36;;;;;;;8.18;4.55;;;;;;;;;;4964711;28;20035;-44
2021/04/28 09:08:07;;;;;;;10.35;4.68;;;;;;;;;;4965466;28;20092;-45
2021/04/28 09:10:33;;;;;;;13.90;4.57;;;;;;;;;;4969401;28;20058;-48
2021/04/28 09:12:58;;;;;;;8.20;3.75;;;;;;;;;;4969672;28;20042;-51
2021/04/28 09:15:44;;;;;;;4.40;2.80;;;;;;;;;;4970208;28;20134;-49
2021/04/28 09:18:10;;;;;;;12.80;3.00;;;;;;;;;;4968637;28;20034;-45
2021/04/28 09:20:43;;;;;;;8.00;3.88;;;;;;;;;;4969844;28;20370;-49
2021/04/28 09:23:12;;;;;;;5.35;3.22;;;;;;;;;;4972398;28;20105;-48
2021/04/28 09:25:39;;;;;;;2.95;2.10;;;;;;;;;;4970638;28;20534;-47
2021/04/28 09:28:23;;;;;;;7.70;5.50;;;;;;;;;;4956661;28;20069;-46
2021/04/28 09:30:49;;;;;;;2.88;1.77;;;;;;;;;;4967790;28;20038;-46
2021/04/28 09:33:15;;;;;;;7.35;2.85;;;;;;;;;;4966273;28;20026;-50
2021/04/28 09:35:40;;;;;;;3.75;1.27;;;;;;;;;;4967288;28;20061;-49
2021/04/28 09:38:06;;;;;;;8.88;3.95;;;;;;;;;;4970511;28;20027;-48
2021/04/28 09:40:42;;;;;;;2.83;1.85;;;;;;;;;;4970394;28;20031;-48
2021/04/28 09:43:07;;;;;;;4.40;3.20;;;;;;;;;;4969556;28;20436;-46
2021/04/28 09:45:40;;;;;;;7.53;3.90;;;;;;;;;;4955183;28;20480;-49
2021/04/28 09:48:06;;;;;;;4.45;2.45;;;;;;;;;;4966968;28;20018;-50
2021/04/28 09:50:31;;;;;;;8.02;2.00;;;;;;;;;;4972639;28;20506;-47
2021/04/28 09:52:56;;;;;;;6.43;4.03;;;;;;;;;;4968308;28;20534;-49
2021/04/28 09:55:22;;;;;;;5.40;3.25;;;;;;;;;;4968633;28;20037;-49
2021/04/28 09:57:48;;;;;;;8.32;4.10;;;;;;;;;;4969034;28;20436;-47
2021/04/28 10:00:14;;;;;;;4.10;1.98;;;;;;;;;;4970083;28;20034;-48
2021/04/28 10:02:41;;;;;;;5.43;3.30;;;;;;;;;;4970039;28;20057;-45
2021/04/28 10:05:15;;;;;;;4.60;3.50;;;;;;;;;;4957701;28;20117;-43
2021/04/28 10:07:41;;;;;;;6.25;3.00;;;;;;;;;;4967336;28;20074;-45
2021/04/28 10:10:06;;;;;;;2.08;1.50;;;;;;;;;;4971899;28;20222;-45
2021/04/28 10:12:31;;;;;;;8.40;3.17;;;;;;;;;;4970471;28;20769;-47
2021/04/28 10:14:57;;;;;;;6.85;2.90;;;;;;;;;;4971224;28;20204;-48
2021/04/28 10:17:22;;;;;;;8.23;2.80;;;;;;;;;;4968720;28;20018;-46
2021/04/28 10:19:49;;;;;;;6.28;2.80;;;;;;;;;;4968302;28;20050;-45
2021/04/28 10:22:19;;;;;;;13.23;4.65;;;;;;;;;;4970643;28;20047;-44
2021/04/28 10:24:47;;;;;;;4.45;2.80;;;;;;;;;;4972507;28;20043;-50
2021/04/28 10:27:16;;;;;;;15.60;3.00;;;;;;;;;;4968106;28;20031;-53
2021/04/28 10:29:41;;;;;;;3.42;2.13;;;;;;;;;;4966450;28;20410;-49
2021/04/28 10:32:08;;;;;;;3.67;2.53;;;;;;;;;;4966848;28;20468;-51
2021/04/28 10:34:51;;;;;;;3.63;2.15;;;;;;;;;;4969565;28;20057;-45
2021/04/28 10:37:19;;;;;;;4.88;1.98;;;;;;;;;;4967715;28;20034;-52
2021/04/28 10:39:48;;;;;;;6.97;1.95;;;;;;;;;;4969686;28;20035;-48
2021/04/28 10:42:33;;;;;;;2.92;1.95;;;;;;;;;;4968623;28;20026;-54
2021/04/28 10:44:59;;;;;;;7.15;3.03;;;;;;;;;;4970794;28;20664;-47
2021/04/28 10:47:26;;;;;;;12.88;4.22;;;;;;;;;;4973921;28;20501;-52
2021/04/28 10:49:57;;;;;;;11.90;3.45;;;;;;;;;;4968685;28;20066;-52
2021/04/28 10:52:29;;;;;;;6.15;3.65;;;;;;;;;;4968134;28;20042;-48
2021/04/28 10:54:54;;;;;;;24.63;5.20;;;;;;;;;;4967259;28;20515;-52
2021/04/28 10:57:39;;;;;;;12.48;3.33;;;;;;;;;;4971311;28;20030;-52
2021/04/28 11:00:20;;;;;;;10.05;3.03;;;;;;;;;;4965175;28;20620;-53
2021/04/28 11:02:45;;;;;;;5.30;3.53;;;;;;;;;;4970193;28;20058;-48
2021/04/28 11:05:20;;;;;;;5.05;3.40;;;;;;;;;;4970316;28;20086;-50
2021/04/28 11:07:51;;;;;;;10.68;3.30;;;;;;;;;;4968791;28;20062;-50
2021/04/28 11:10:16;;;;;;;;;;;;;;;;;;4966968;28;20038;-51
2021/04/28 11:13:13;;;;;;;5.47;2.58;;;;;;;;;;4972349;28;19910;-49
2021/04/28 11:15:51;;;;;;;13.32;4.05;;;;;;;;;;4908526;28;20179;-50
2021/04/28 11:18:26;;;;;;;4.70;3.55;;;;;;;;;;4966798;28;20046;-53
2021/04/28 11:21:10;;;;;;;23.05;5.50;;;;;;;;;;4955360;28;20035;-53
2021/04/28 11:23:35;;;;;;;8.15;4.95;;;;;;;;;;4967978;28;20510;-51
2021/04/28 11:26:19;;;;;;;8.95;6.38;;;;;;;;;;4972796;28;20030;-52
2021/04/28 11:28:48;;;;;;;6.80;3.80;;;;;;;;;;4967425;28;20630;-53
2021/04/28 11:31:21;;;;;;;5.75;3.70;;;;;;;;;;4966558;28;20037;-51
2021/04/28 11:33:46;;;;;;;19.75;10.52;;;;;;;;;;4962414;28;20128;-52
2021/04/28 11:36:14;;;;;;;36.38;29.75;;;;;;;;;;4967396;28;20117;-53
2021/04/28 11:38:50;;;;;;;29.40;23.23;;;;;;;;;;4966160;28;20213;-54
2021/04/28 11:41:17;;;;;;;22.40;14.38;;;;;;;;;;4967776;28;20105;-50
2021/04/28 11:43:46;;;;;;;13.48;9.32;;;;;;;;;;4967529;28;20070;-51
2021/04/28 11:46:17;;;;;;;9.30;6.70;;;;;;;;;;4970240;28;20069;-50
2021/04/28 11:48:43;;;;;;;7.32;5.35;;;;;;;;;;4969438;28;20057;-53
2021/04/28 11:51:10;;;;;;;8.10;4.30;;;;;;;;;;4969797;28;20129;-53
2021/04/28 11:53:40;;;;;;;11.55;4.43;;;;;;;;;;4973342;28;20026;-53
2021/04/28 11:56:05;;;;;;;7.47;3.83;;;;;;;;;;4966848;28;20049;-53
2021/04/28 11:58:34;;;;;;;8.27;3.72;;;;;;;;;;4970109;28;20022;-52
2021/04/28 12:01:10;;;;;;;10.73;3.67;;;;;;;;;;4970942;28;20135;-53
2021/04/28 12:03:50;;;;;;;8.05;4.55;;;;;;;;;;4965125;28;20015;-51
2021/04/28 12:06:25;;;;;;;9.43;4.95;;;;;;;;;;4966560;28;20031;-54
2021/04/28 12:09:05;;;;;;;18.35;5.70;;;;;;;;;;4965950;28;20146;-52
2021/04/28 12:11:31;;;;;;;14.13;4.90;;;;;;;;;;4965395;28;20026;-48
2021/04/28 12:13:56;;;;;;;10.10;5.07;;;;;;;;;;4973571;28;20434;-51
2021/04/28 12:16:21;;;;;;;5.38;4.30;;;;;;;;;;4969168;28;20712;-52
2021/04/28 12:18:47;;;;;;;11.95;3.60;;;;;;;;;;4967935;28;20031;-55
2021/04/28 12:21:12;;;;;;;7.57;3.15;;;;;;;;;;4972816;28;20590;-49
2021/04/28 12:23:39;;;;;;;6.05;4.28;;;;;;;;;;4971121;28;20177;-51
2021/04/28 12:26:07;;;;;;;6.22;3.88;;;;;;;;;;4969844;28;20486;-50
2021/04/28 12:28:45;;;;;;;8.73;4.10;;;;;;;;;;4973887;28;20089;-52
2021/04/28 12:31:10;;;;;;;9.15;4.07;;;;;;;;;;4971572;28;20399;-49
2021/04/28 12:33:36;;;;;;;12.07;3.70;;;;;;;;;;4969845;28;20042;-46
2021/04/28 12:36:01;;;;;;;5.45;3.28;;;;;;;;;;4967347;28;20034;-41
2021/04/28 12:38:26;;;;;;;4.18;2.47;;;;;;;;;;4972283;28;20019;-56
2021/04/28 12:40:58;;;;;;;8.63;3.58;;;;;;;;;;4969684;28;20118;-53
2021/04/28 12:43:23;;;;;;;11.52;3.67;;;;;;;;;;4971823;28;20098;-54
2021/04/28 12:45:49;;;;;;;5.10;3.03;;;;;;;;;;4971261;28;20025;-50
2021/04/28 12:48:16;;;;;;;8.57;2.97;;;;;;;;;;4969035;28;20459;-52
2021/04/28 12:50:42;;;;;;;10.52;8.52;;;;;;;;;;4969962;28;20116;-46
2021/04/28 12:53:09;;;;;;;10.45;4.68;;;;;;;;;;4974308;28;20023;-50
2021/04/28 12:55:35;;;;;;;3.17;2.72;;;;;;;;;;4969471;28;20075;-51
2021/04/28 12:58:01;;;;;;;8.63;4.57;;;;;;;;;;4970357;28;20579;-50
2021/04/28 13:00:31;;;;;;;9.55;3.72;;;;;;;;;;4969746;28;20549;-49
2021/04/28 13:03:10;;;;;;;14.50;3.42;;;;;;;;;;4971323;28;20630;-49
2021/04/28 13:05:37;;;;;;;7.50;3.25;;;;;;;;;;4978713;28;20399;-45
2021/04/28 13:08:19;;;;;;;7.43;3.50;;;;;;;;;;4978340;28;20121;-47
2021/04/28 13:10:56;;;;;;;9.77;3.58;;;;;;;;;;4975508;28;20571;-45
2021/04/28 13:13:37;;;;;;;6.22;3.65;;;;;;;;;;4975188;28;20023;-48
2021/04/28 13:16:03;;;;;;;6.03;3.15;;;;;;;;;;4975188;28;20491;-44
2021/04/28 13:18:28;;;;;;;6.55;3.47;;;;;;;;;;4974653;28;20022;-48
2021/04/28 13:20:53;;;;;;;10.77;3.72;;;;;;;;;;4961456;28;20592;-48
2021/04/28 13:23:20;;;;;;;17.25;3.42;;;;;;;;;;4972122;28;20547;-50
2021/04/28 13:25:55;;;;;;;25.23;4.18;;;;;;;;;;4974726;28;20023;-49
2021/04/28 13:28:33;;;;;;;5.45;4.93;;;;;;;;;;4970399;28;20081;-48
2021/04/28 13:31:18;;;;;;;7.05;4.88;;;;;;;;;;4968830;28;20130;-45
2021/04/28 13:33:43;;;;;;;11.10;5.50;;;;;;;;;;4969129;28;20030;-47
2021/04/28 13:36:22;;;;;;;10.05;4.22;;;;;;;;;;4972813;28;20046;-47
2021/04/28 13:38:48;;;;;;;9.65;6.35;;;;;;;;;;4973315;28;20034;-48
2021/04/28 13:41:14;;;;;;;10.63;8.30;;;;;;;;;;4969621;28;20750;-49
2021/04/28 13:43:40;;;;;;;13.68;10.02;;;;;;;;;;4975099;28;20046;-50
2021/04/28 13:46:05;;;;;;;8.50;3.78;;;;;;;;;;4972248;28;20019;-55
2021/04/28 13:48:30;;;;;;;9.48;4.75;;;;;;;;;;4971217;28;20042;-53
2021/04/28 13:50:56;;;;;;;5.00;2.65;;;;;;;;;;4971629;28;20406;-37
2021/04/28 13:53:21;;;;;;;4.55;2.67;;;;;;;;;;4971386;28;20114;-39
2021/04/28 13:55:46;;;;;;;10.77;3.97;;;;;;;;;;4970144;28;20041;-43
2021/04/28 13:58:12;;;;;;;4.85;3.10;;;;;;;;;;4975479;28;20010;-46
2021/04/28 14:00:37;;;;;;;18.13;3.47;;;;;;;;;;4970552;28;20034;-45
2021/04/28 14:03:03;;;;;;;6.30;3.47;;;;;;;;;;4972114;28;20023;-45
2021/04/28 14:05:28;;;;;;;5.85;3.25;;;;;;;;;;4975351;28;20042;-46
2021/04/28 14:07:53;;;;;;;3.22;2.13;;;;;;;;;;4969840;28;20055;-48
2021/04/28 14:10:21;;;;;;;5.57;3.47;;;;;;;;;;4970294;28;20039;-46
2021/04/28 14:12:46;;;;;;;11.40;5.82;;;;;;;;;;4968786;28;20110;-46
2021/04/28 14:15:12;;;;;;;13.70;4.45;;;;;;;;;;4967716;28;20923;-46
2021/04/28 14:17:37;;;;;;;4.50;2.75;;;;;;;;;;4967088;28;20714;-45
2021/04/28 14:20:03;;;;;;;12.63;2.40;;;;;;;;;;4967347;28;20035;-44
2021/04/28 14:22:29;;;;;;;15.68;3.53;;;;;;;;;;4956040;28;20022;-44
2021/04/28 14:24:54;;;;;;;5.60;2.00;;;;;;;;;;4965461;28;20415;-47
2021/04/28 14:27:20;;;;;;;7.35;4.32;;;;;;;;;;4969899;28;20226;-44
2021/04/28 14:29:45;;;;;;;4.10;2.95;;;;;;;;;;4971956;28;20149;-45
2021/04/28 14:32:10;;;;;;;8.18;3.08;;;;;;;;;;4974224;28;20034;-44
2021/04/28 14:34:36;;;;;;;10.38;3.90;;;;;;;;;;4969173;28;20121;-47
2021/04/28 14:37:01;;;;;;;37.15;5.38;;;;;;;;;;4971542;28;20024;-46